Terminal Aerodrome Forecast
Issued by NWS Goodland, KS

Home | Current Version | Previous Version | Text Only | Print | Product List | Glossary On
Versions: 1 2 3 4 5 6 7 8 9 10 11 12 13
878
FTUS43 KGLD 172337
TAFGLD
TAF
KGLD 172337Z 1800/1824 34014KT P6SM SCT200
     FM180300 01011KT P6SM VCSH BKN200
     FM180500 35017G25KT P6SM -RA BKN060
     FM180600 35021G29KT P6SM -RASN OVC035
     FM180700 35023G31KT P6SM VCSH OVC080
     FM180900 34025G33KT P6SM BKN030
     FM181100 34022G31KT P6SM SCT070
     FM182200 33014KT P6SM SKC=

USA.gov is the U.S. government's official web portal to all federal, state and local government web resources and services.